createdAt,value
2018-08-16T00:02:13.144Z,16.70
2018-08-16T00:04:42.156Z,16.70
2018-08-16T00:07:10.830Z,16.70
2018-08-16T00:09:39.618Z,16.70
2018-08-16T00:12:08.362Z,16.70
2018-08-16T00:14:36.358Z,16.60
2018-08-16T00:17:04.437Z,16.60
2018-08-16T00:19:32.830Z,16.60
2018-08-16T00:22:02.880Z,16.60
2018-08-16T00:24:32.861Z,16.50
2018-08-16T00:27:01.645Z,16.50
2018-08-16T00:29:30.894Z,16.40
2018-08-16T00:31:59.389Z,16.50
2018-08-16T00:34:29.045Z,16.40
2018-08-16T00:36:57.373Z,16.50
2018-08-16T00:39:27.272Z,16.40
2018-08-16T00:41:59.680Z,16.50
2018-08-16T00:44:27.701Z,16.50
2018-08-16T00:46:56.570Z,16.40
2018-08-16T00:49:25.393Z,16.40
2018-08-16T00:51:54.036Z,16.30
2018-08-16T00:54:22.415Z,16.40
2018-08-16T00:56:51.305Z,16.30
2018-08-16T00:59:21.519Z,16.30
2018-08-16T01:01:49.504Z,16.30
2018-08-16T01:04:18.395Z,16.40
2018-08-16T01:06:47.208Z,16.30
2018-08-16T01:09:17.628Z,16.40
2018-08-16T01:11:47.672Z,16.30
2018-08-16T01:14:19.800Z,16.30
2018-08-16T01:16:47.961Z,16.30
2018-08-16T01:19:17.265Z,16.30
2018-08-16T01:21:45.927Z,16.30
2018-08-16T01:24:14.220Z,16.30
2018-08-16T01:26:45.515Z,16.30
2018-08-16T01:29:17.523Z,16.30
2018-08-16T01:31:47.162Z,16.30
2018-08-16T01:34:15.858Z,16.30
2018-08-16T01:36:44.545Z,16.30
2018-08-16T01:39:12.749Z,16.20
2018-08-16T01:41:41.555Z,16.20
2018-08-16T01:44:09.536Z,16.20
2018-08-16T01:46:37.897Z,16.20
2018-08-16T01:49:15.530Z,16.10
2018-08-16T01:51:43.992Z,16.10
2018-08-16T01:54:12.352Z,16.10
2018-08-16T01:56:41.249Z,16.10
2018-08-16T01:59:10.345Z,16.10
2018-08-16T02:01:40.036Z,16.10
2018-08-16T02:04:08.268Z,16.00
2018-08-16T02:06:37.189Z,15.90
2018-08-16T02:09:08.847Z,15.90
2018-08-16T02:11:37.541Z,15.90
2018-08-16T02:14:06.485Z,15.90
2018-08-16T02:16:35.677Z,15.90
2018-08-16T02:19:05.054Z,15.80
2018-08-16T02:21:34.190Z,15.80
2018-08-16T02:24:03.032Z,15.80
2018-08-16T02:26:30.957Z,15.70
2018-08-16T02:29:03.315Z,15.70
2018-08-16T02:31:32.288Z,15.70
2018-08-16T02:34:01.053Z,15.70
2018-08-16T02:36:29.582Z,15.70
2018-08-16T02:38:58.973Z,15.70
2018-08-16T02:41:27.760Z,15.60
2018-08-16T02:44:02.333Z,15.60
2018-08-16T02:46:30.405Z,15.50
2018-08-16T02:48:59.146Z,15.50
2018-08-16T02:51:27.913Z,15.50
2018-08-16T02:53:56.962Z,15.50
2018-08-16T02:56:25.489Z,15.50
2018-08-16T02:58:58.305Z,15.50
2018-08-16T03:01:29.443Z,15.50
2018-08-16T03:03:58.428Z,15.50
2018-08-16T03:06:26.769Z,15.40
2018-08-16T03:08:55.167Z,15.30
2018-08-16T03:11:24.193Z,15.40
2018-08-16T03:13:56.306Z,15.40
2018-08-16T03:16:25.764Z,15.40
2018-08-16T03:18:54.934Z,15.40
2018-08-16T03:21:23.165Z,15.40
2018-08-16T03:23:51.509Z,15.40
2018-08-16T03:26:19.824Z,15.40
2018-08-16T03:28:47.784Z,15.30
2018-08-16T03:31:17.161Z,15.40
2018-08-16T03:33:48.969Z,15.30
2018-08-16T03:36:17.531Z,15.30
2018-08-16T03:38:46.570Z,15.20
2018-08-16T03:41:15.595Z,15.20
2018-08-16T03:43:44.008Z,15.10
2018-08-16T03:46:13.093Z,15.10
2018-08-16T03:48:42.716Z,15.10
2018-08-16T03:51:11.009Z,15.20
2018-08-16T03:53:39.760Z,15.20
2018-08-16T03:56:08.553Z,15.10
2018-08-16T03:58:37.727Z,15.10
2018-08-16T04:01:06.469Z,15.10
2018-08-16T04:03:35.363Z,15.10
2018-08-16T04:06:04.929Z,15.10
2018-08-16T04:08:34.396Z,15.10
2018-08-16T04:11:02.893Z,15.10
2018-08-16T04:13:31.209Z,15.00
2018-08-16T04:16:00.553Z,15.00
2018-08-16T04:18:28.885Z,15.00
2018-08-16T04:20:57.940Z,15.10
2018-08-16T04:23:26.297Z,15.00
2018-08-16T04:25:54.909Z,15.00
2018-08-16T04:28:23.439Z,15.00
2018-08-16T04:30:52.893Z,15.00
2018-08-16T04:33:20.861Z,15.10
2018-08-16T04:35:49.965Z,15.10
2018-08-16T04:38:18.790Z,15.10
2018-08-16T04:40:47.177Z,15.10
2018-08-16T04:43:15.582Z,15.20
2018-08-16T04:45:44.396Z,15.20
2018-08-16T04:48:13.212Z,15.20
2018-08-16T04:50:41.977Z,15.30
2018-08-16T04:53:10.553Z,15.30
2018-08-16T04:55:39.666Z,15.30
2018-08-16T04:58:08.113Z,15.30
2018-08-16T05:00:37.453Z,15.40
2018-08-16T05:03:05.889Z,15.60
2018-08-16T05:05:33.825Z,15.60
2018-08-16T05:08:02.472Z,15.60
2018-08-16T05:10:31.661Z,15.70
2018-08-16T05:13:00.766Z,15.70
2018-08-16T05:15:30.642Z,15.80
2018-08-16T05:17:58.953Z,15.90
2018-08-16T05:20:26.913Z,15.90
2018-08-16T05:22:55.500Z,15.80
2018-08-16T05:25:23.777Z,15.90
2018-08-16T05:27:52.555Z,15.90
2018-08-16T05:30:23.106Z,16.00
2018-08-16T05:32:52.668Z,16.10
2018-08-16T05:35:20.968Z,16.10
2018-08-16T05:37:48.897Z,16.20
2018-08-16T05:40:17.297Z,16.30
2018-08-16T05:42:45.241Z,16.50
2018-08-16T05:45:16.929Z,16.60
2018-08-16T05:47:46.029Z,16.70
2018-08-16T05:50:15.399Z,16.80
2018-08-16T05:52:45.060Z,16.90
2018-08-16T05:55:14.461Z,17.10
2018-08-16T05:57:42.786Z,17.20
2018-08-16T06:00:13.577Z,17.30
2018-08-16T06:02:43.086Z,17.50
2018-08-16T06:05:11.818Z,17.60
2018-08-16T06:07:40.812Z,17.90
2018-08-16T06:10:10.578Z,17.80
2018-08-16T06:12:38.478Z,18.00
2018-08-16T06:15:08.488Z,18.30
2018-08-16T06:17:38.181Z,18.50
2018-08-16T06:20:08.421Z,18.60
2018-08-16T06:22:38.077Z,18.70
2018-08-16T06:25:07.641Z,19.00
2018-08-16T06:27:36.549Z,19.20
2018-08-16T06:30:08.703Z,19.30
2018-08-16T06:32:38.444Z,19.50
2018-08-16T06:35:06.650Z,19.50
2018-08-16T06:37:34.773Z,19.70
2018-08-16T06:40:02.642Z,19.90
2018-08-16T06:42:30.610Z,19.90
2018-08-16T06:44:59.357Z,20.10
2018-08-16T06:47:29.509Z,20.20
2018-08-16T06:49:57.365Z,20.40
2018-08-16T06:52:26.311Z,20.50
2018-08-16T06:54:54.601Z,20.50
2018-08-16T06:57:22.538Z,20.60
2018-08-16T06:59:50.846Z,20.80
2018-08-16T07:02:19.851Z,20.90
2018-08-16T07:04:47.881Z,21.00
2018-08-16T07:07:16.696Z,21.10
2018-08-16T07:09:44.709Z,21.20
2018-08-16T07:12:13.239Z,21.40
2018-08-16T07:14:41.632Z,21.60
2018-08-16T07:17:09.853Z,21.60
2018-08-16T07:19:38.048Z,21.70
2018-08-16T07:22:06.084Z,21.80
2018-08-16T07:24:34.949Z,21.80
2018-08-16T07:27:03.321Z,21.90
2018-08-16T07:29:31.349Z,22.00
2018-08-16T07:31:59.984Z,22.00
2018-08-16T07:34:28.819Z,22.20
2018-08-16T07:36:56.777Z,22.20
2018-08-16T07:39:25.077Z,22.40
2018-08-16T07:41:53.401Z,22.60
2018-08-16T07:44:21.773Z,22.90
2018-08-16T07:46:49.700Z,22.70
2018-08-16T07:49:17.960Z,23.00
2018-08-16T07:51:46.383Z,23.30
2018-08-16T07:54:14.569Z,23.60
2018-08-16T07:56:43.768Z,23.60
2018-08-16T07:59:12.557Z,23.40
2018-08-16T08:01:41.965Z,23.70
2018-08-16T08:04:10.337Z,24.00
2018-08-16T08:06:38.881Z,24.20
2018-08-16T08:09:08.314Z,24.40
2018-08-16T08:11:37.702Z,24.40
2018-08-16T08:14:06.625Z,24.40
2018-08-16T08:16:34.637Z,24.70
2018-08-16T08:19:02.969Z,24.80
2018-08-16T08:21:31.245Z,24.80
2018-08-16T08:24:00.505Z,24.90
2018-08-16T08:26:29.129Z,24.90
2018-08-16T08:28:57.404Z,25.00
2018-08-16T08:31:25.975Z,25.10
2018-08-16T08:33:54.536Z,25.40
2018-08-16T08:36:33.881Z,25.50
2018-08-16T08:39:02.174Z,25.60
2018-08-16T08:41:30.706Z,25.70
2018-08-16T08:44:33.850Z,25.80
2018-08-16T08:47:02.545Z,25.80
2018-08-16T08:49:32.433Z,25.70
2018-08-16T08:52:00.738Z,25.70
2018-08-16T08:54:48.878Z,25.90
2018-08-16T08:58:27.791Z,25.90
2018-08-16T09:00:56.178Z,25.90
2018-08-16T09:03:24.084Z,25.80
2018-08-16T09:05:52.398Z,25.80
2018-08-16T09:08:20.708Z,25.90
2018-08-16T09:11:09.984Z,26.10
2018-08-16T09:13:49.671Z,26.20
2018-08-16T09:16:20.941Z,26.30
2018-08-16T09:18:50.173Z,26.30
2018-08-16T09:21:18.562Z,26.40
2018-08-16T09:23:46.881Z,26.70
2018-08-16T09:26:20.742Z,26.50
2018-08-16T09:28:49.044Z,26.70
2018-08-16T09:31:28.311Z,26.70
2018-08-16T09:34:09.969Z,26.60
2018-08-16T09:36:39.176Z,26.80
2018-08-16T09:39:08.155Z,26.70
2018-08-16T09:41:37.424Z,26.70
2018-08-16T09:44:05.633Z,26.80
2018-08-16T09:46:56.522Z,26.90
2018-08-16T09:49:25.034Z,27.20
2018-08-16T09:51:53.593Z,27.20
2018-08-16T09:54:21.972Z,27.20
2018-08-16T09:56:50.860Z,27.20
2018-08-16T09:59:19.445Z,27.20
2018-08-16T10:01:48.522Z,27.10
2018-08-16T10:04:16.385Z,27.00
2018-08-16T10:06:47.361Z,27.10
2018-08-16T10:09:18.270Z,27.10
2018-08-16T10:11:47.294Z,27.10
2018-08-16T10:14:15.878Z,27.20
2018-08-16T10:16:44.130Z,27.40
2018-08-16T10:19:14.065Z,27.60
2018-08-16T10:21:42.049Z,27.60
2018-08-16T10:24:12.666Z,27.80
2018-08-16T10:26:41.380Z,27.60
2018-08-16T10:29:10.238Z,27.70
2018-08-16T10:31:38.613Z,27.90
2018-08-16T10:34:06.999Z,28.00
2018-08-16T10:36:34.905Z,28.00
2018-08-16T10:39:04.098Z,28.10
2018-08-16T10:41:32.054Z,28.10
2018-08-16T10:43:59.984Z,28.20
2018-08-16T10:46:28.893Z,28.40
2018-08-16T10:48:57.345Z,28.40
2018-08-16T10:51:26.590Z,28.40
2018-08-16T10:53:54.905Z,28.40
2018-08-16T10:56:28.680Z,28.50
2018-08-16T10:58:56.629Z,28.70
2018-08-16T11:01:25.866Z,29.00
2018-08-16T11:03:55.336Z,28.90
2018-08-16T11:06:23.227Z,29.00
2018-08-16T11:08:51.590Z,28.90
2018-08-16T11:11:19.919Z,28.80
2018-08-16T11:13:48.328Z,29.00
2018-08-16T11:16:16.265Z,29.00
2018-08-16T11:18:44.733Z,29.10
2018-08-16T11:21:12.624Z,29.10
2018-08-16T11:23:41.263Z,29.20
2018-08-16T11:26:09.764Z,29.00
2018-08-16T11:28:39.938Z,29.10
2018-08-16T11:31:09.372Z,29.10
2018-08-16T11:33:37.745Z,29.50
2018-08-16T11:36:07.416Z,29.30
2018-08-16T11:38:36.728Z,29.30
2018-08-16T11:41:05.468Z,29.30
2018-08-16T11:43:35.230Z,29.40
2018-08-16T11:46:03.117Z,29.50
2018-08-16T11:48:31.780Z,29.40
2018-08-16T11:51:00.429Z,29.50
2018-08-16T11:53:29.009Z,29.70
2018-08-16T11:55:57.665Z,29.70
2018-08-16T11:58:26.057Z,29.40
2018-08-16T12:00:54.217Z,29.40
2018-08-16T12:03:22.462Z,29.40
2018-08-16T12:05:50.853Z,29.70
2018-08-16T12:10:54.768Z,29.80
2018-08-16T12:13:23.068Z,29.90
2018-08-16T12:15:51.871Z,29.90
2018-08-16T12:18:21.932Z,29.80
2018-08-16T12:20:51.197Z,29.80
2018-08-16T12:23:19.775Z,29.70
2018-08-16T12:25:48.073Z,29.70
2018-08-16T12:28:17.069Z,29.80
2018-08-16T12:30:45.753Z,29.90
2018-08-16T12:33:14.577Z,30.10
2018-08-16T12:35:51.382Z,30.00
2018-08-16T12:38:21.629Z,30.10
2018-08-16T12:40:50.758Z,30.50
2018-08-16T12:43:21.384Z,31.10
2018-08-16T12:45:51.328Z,31.90
2018-08-16T12:48:20.349Z,33.10
2018-08-16T12:50:48.913Z,34.30
2018-08-16T12:53:17.665Z,35.10
2018-08-16T12:55:45.630Z,35.60
2018-08-16T12:58:13.586Z,36.20
2018-08-16T13:00:41.760Z,36.80
2018-08-16T13:03:10.405Z,36.70
2018-08-16T13:05:39.364Z,36.80
2018-08-16T13:08:07.677Z,37.00
2018-08-16T13:10:36.408Z,37.50
2018-08-16T13:13:04.677Z,37.80
2018-08-16T13:15:32.911Z,38.30
2018-08-16T13:18:01.229Z,38.50
2018-08-16T13:20:29.221Z,38.40
2018-08-16T13:22:57.713Z,38.40
2018-08-16T13:25:25.624Z,38.50
2018-08-16T13:27:54.156Z,38.60
2018-08-16T13:30:22.888Z,38.60
2018-08-16T13:32:51.937Z,38.70
2018-08-16T13:35:20.772Z,39.00
2018-08-16T13:37:49.353Z,39.60
2018-08-16T13:40:19.214Z,40.40
2018-08-16T13:42:47.650Z,41.10
2018-08-16T13:45:16.866Z,41.80
2018-08-16T13:47:45.632Z,42.10
2018-08-16T13:50:14.849Z,42.60
2018-08-16T13:52:43.538Z,42.30
2018-08-16T13:55:11.918Z,42.40
2018-08-16T13:57:41.100Z,42.00
2018-08-16T14:00:10.490Z,41.80
2018-08-16T14:02:39.498Z,41.80
2018-08-16T14:05:08.029Z,41.50
2018-08-16T14:07:36.742Z,41.70
2018-08-16T14:10:07.213Z,41.90
2018-08-16T14:12:36.797Z,42.10
2018-08-16T14:15:06.318Z,42.50
2018-08-16T14:17:35.766Z,42.80
2018-08-16T14:20:05.047Z,43.30
2018-08-16T14:22:35.225Z,43.30
2018-08-16T14:25:04.650Z,43.20
2018-08-16T14:27:32.957Z,42.80
2018-08-16T14:30:02.168Z,41.80
2018-08-16T14:32:30.650Z,41.60
2018-08-16T14:34:59.216Z,41.60
2018-08-16T14:37:27.423Z,42.20
2018-08-16T14:39:56.411Z,42.90
2018-08-16T14:42:24.529Z,43.60
2018-08-16T14:44:52.697Z,44.10
2018-08-16T14:47:21.981Z,43.90
2018-08-16T14:49:50.829Z,44.30
2018-08-16T14:52:24.212Z,44.60
2018-08-16T14:54:53.624Z,44.40
2018-08-16T14:57:22.770Z,44.20
2018-08-16T14:59:51.101Z,43.80
2018-08-16T15:02:19.338Z,43.30
2018-08-16T15:04:47.956Z,43.30
2018-08-16T15:07:17.631Z,42.80
2018-08-16T15:09:47.595Z,42.70
2018-08-16T15:12:23.165Z,43.10
2018-08-16T15:14:51.828Z,43.10
2018-08-16T15:17:21.429Z,43.00
2018-08-16T15:19:50.232Z,42.60
2018-08-16T15:22:19.055Z,41.90
2018-08-16T15:24:48.995Z,41.60
2018-08-16T15:27:18.618Z,41.60
2018-08-16T15:29:47.870Z,41.50
2018-08-16T15:32:21.002Z,41.30
2018-08-16T15:34:50.369Z,41.50
2018-08-16T15:37:19.089Z,41.50
2018-08-16T15:39:49.373Z,41.00
2018-08-16T15:42:17.745Z,41.20
2018-08-16T15:44:46.181Z,41.50
2018-08-16T15:47:15.243Z,40.90
2018-08-16T15:49:44.737Z,40.70
2018-08-16T15:52:13.077Z,40.50
2018-08-16T15:54:41.796Z,40.70
2018-08-16T15:57:11.072Z,40.90
2018-08-16T15:59:39.469Z,40.90
2018-08-16T16:02:07.494Z,41.40
2018-08-16T16:04:35.804Z,41.40
2018-08-16T16:07:05.009Z,41.50
2018-08-16T16:09:33.137Z,41.20
2018-08-16T16:12:01.888Z,41.20
2018-08-16T16:14:29.861Z,41.00
2018-08-16T16:16:58.232Z,40.90
2018-08-16T16:19:26.473Z,40.90
2018-08-16T16:21:55.113Z,40.80
2018-08-16T16:24:23.897Z,40.90
2018-08-16T16:26:51.862Z,41.00
2018-08-16T16:29:20.641Z,40.90
2018-08-16T16:31:49.406Z,40.70
2018-08-16T16:34:17.833Z,40.70
2018-08-16T16:36:46.501Z,40.60
2018-08-16T16:39:14.476Z,40.10
2018-08-16T16:41:43.359Z,40.20
2018-08-16T16:44:12.143Z,40.10
2018-08-16T16:46:40.089Z,40.00
2018-08-16T16:49:08.865Z,39.60
2018-08-16T16:51:37.899Z,39.60
2018-08-16T16:54:06.082Z,39.50
2018-08-16T16:56:35.048Z,39.90
2018-08-16T16:59:04.356Z,39.80
2018-08-16T17:01:32.697Z,40.00
2018-08-16T17:04:02.097Z,39.90
2018-08-16T17:06:29.929Z,39.50
2018-08-16T17:08:58.280Z,39.30
2018-08-16T17:11:27.961Z,39.30
2018-08-16T17:13:56.337Z,38.90
2018-08-16T17:16:24.684Z,38.70
2018-08-16T17:18:53.686Z,38.30
2018-08-16T17:21:21.680Z,37.80
2018-08-16T17:23:49.611Z,37.70
2018-08-16T17:26:17.509Z,37.60
2018-08-16T17:28:46.066Z,36.80
2018-08-16T17:31:15.433Z,35.50
2018-08-16T17:33:43.712Z,34.40
2018-08-16T17:36:12.062Z,33.30
2018-08-16T17:38:40.853Z,32.30
2018-08-16T17:41:09.701Z,31.40
2018-08-16T17:43:38.067Z,30.60
2018-08-16T17:46:06.060Z,29.90
2018-08-16T17:48:34.396Z,29.30
2018-08-16T17:51:02.344Z,28.70
2018-08-16T17:53:31.493Z,28.10
2018-08-16T17:55:59.909Z,27.80
2018-08-16T17:58:28.520Z,27.40
2018-08-16T18:00:57.137Z,26.70
2018-08-16T18:03:26.086Z,25.90
2018-08-16T18:05:55.441Z,25.20
2018-08-16T18:08:26.125Z,24.60
2018-08-16T18:10:54.220Z,24.10
2018-08-16T18:13:28.686Z,23.80
2018-08-16T18:15:57.005Z,23.70
2018-08-16T18:18:25.358Z,23.70
2018-08-16T18:20:53.569Z,23.60
2018-08-16T18:23:22.456Z,23.60
2018-08-16T18:25:52.621Z,23.60
2018-08-16T18:28:20.889Z,23.40
2018-08-16T18:30:49.593Z,23.00
2018-08-16T18:33:18.632Z,22.80
2018-08-16T18:35:48.822Z,22.40
2018-08-16T18:38:17.319Z,22.00
2018-08-16T18:40:47.266Z,21.70
2018-08-16T18:43:16.677Z,21.50
2018-08-16T18:45:45.025Z,21.40
2018-08-16T18:48:14.148Z,21.30
2018-08-16T18:50:45.873Z,21.20
2018-08-16T18:53:15.843Z,21.00
2018-08-16T18:55:44.420Z,20.80
2018-08-16T18:58:12.718Z,20.50
2018-08-16T19:00:41.441Z,20.30
2018-08-16T19:03:09.844Z,20.10
2018-08-16T19:05:46.559Z,20.00
2018-08-16T19:08:16.403Z,19.90
2018-08-16T19:10:45.517Z,19.90
2018-08-16T19:13:14.574Z,19.80
2018-08-16T19:15:43.673Z,19.80
2018-08-16T19:18:16.571Z,19.60
2018-08-16T19:20:44.577Z,19.60
2018-08-16T19:23:14.829Z,19.40
2018-08-16T19:25:43.047Z,19.30
2018-08-16T19:28:12.265Z,19.20
2018-08-16T19:30:41.245Z,19.10
2018-08-16T19:33:09.518Z,19.00
2018-08-16T19:35:37.895Z,19.00
2018-08-16T19:38:07.721Z,18.90
2018-08-16T19:40:36.501Z,19.10
2018-08-16T19:43:05.553Z,18.80
2018-08-16T19:45:35.426Z,18.80
2018-08-16T19:48:04.982Z,18.80
2018-08-16T19:50:34.390Z,18.90
2018-08-16T19:53:03.030Z,18.90
2018-08-16T19:55:33.221Z,18.90
2018-08-16T19:58:01.661Z,18.80
2018-08-16T20:00:31.037Z,18.70
2018-08-16T20:03:05.112Z,18.60
2018-08-16T20:05:33.948Z,18.50
2018-08-16T20:08:02.797Z,18.40
2018-08-16T20:10:32.069Z,18.40
2018-08-16T20:13:00.855Z,18.30
2018-08-16T20:15:29.544Z,18.40
2018-08-16T20:17:57.482Z,18.30
2018-08-16T20:20:26.263Z,18.30
2018-08-16T20:22:54.800Z,18.20
2018-08-16T20:25:23.545Z,18.10
2018-08-16T20:27:52.590Z,18.10
2018-08-16T20:30:21.664Z,18.00
2018-08-16T20:32:50.389Z,17.90
2018-08-16T20:35:18.677Z,17.80
2018-08-16T20:37:47.285Z,17.70
2018-08-16T20:40:16.971Z,17.70
2018-08-16T20:42:45.740Z,17.70
2018-08-16T20:45:14.818Z,17.80
2018-08-16T20:47:44.742Z,17.70
2018-08-16T20:50:13.425Z,17.70
2018-08-16T20:52:41.808Z,17.70
2018-08-16T20:55:10.175Z,17.60
2018-08-16T20:57:38.543Z,17.60
2018-08-16T21:00:07.737Z,17.60
2018-08-16T21:02:37.686Z,17.60
2018-08-16T21:05:06.261Z,17.50
2018-08-16T21:07:34.557Z,17.50
2018-08-16T21:10:03.507Z,17.50
2018-08-16T21:12:31.850Z,17.50
2018-08-16T21:15:00.235Z,17.50
2018-08-16T21:17:28.945Z,17.40
2018-08-16T21:19:57.965Z,17.40
2018-08-16T21:22:26.197Z,17.50
2018-08-16T21:24:54.584Z,17.40
2018-08-16T21:27:23.309Z,17.50
2018-08-16T21:29:51.445Z,17.50
2018-08-16T21:32:19.653Z,17.60
2018-08-16T21:34:48.966Z,17.60
2018-08-16T21:37:17.606Z,17.50
2018-08-16T21:39:46.065Z,17.40
2018-08-16T21:42:15.445Z,17.50
2018-08-16T21:44:44.217Z,17.60
2018-08-16T21:47:13.127Z,17.60
2018-08-16T21:49:42.133Z,17.60
2018-08-16T21:52:11.036Z,17.60
2018-08-16T21:54:39.222Z,17.60
2018-08-16T21:57:07.549Z,17.60
2018-08-16T21:59:37.009Z,17.70
2018-08-16T22:02:06.155Z,17.70
2018-08-16T22:04:34.425Z,17.60
2018-08-16T22:07:13.380Z,17.60
2018-08-16T22:09:42.609Z,17.60
2018-08-16T22:12:12.293Z,17.60
2018-08-16T22:14:40.546Z,17.60
2018-08-16T22:17:08.476Z,17.50
2018-08-16T22:19:36.840Z,17.50
2018-08-16T22:22:05.658Z,17.40
2018-08-16T22:24:33.428Z,17.50
2018-08-16T22:27:01.357Z,17.40
2018-08-16T22:29:29.321Z,17.30
2018-08-16T22:31:57.956Z,17.30
2018-08-16T22:34:27.249Z,17.30
2018-08-16T22:36:56.354Z,17.30
2018-08-16T22:39:24.739Z,17.30
2018-08-16T22:41:54.124Z,17.30
2018-08-16T22:44:23.441Z,17.20
2018-08-16T22:46:52.889Z,17.30
2018-08-16T22:49:22.201Z,17.30
2018-08-16T22:51:50.677Z,17.30
2018-08-16T22:54:19.275Z,17.30
2018-08-16T22:56:47.576Z,17.20
2018-08-16T22:59:16.256Z,17.10
2018-08-16T23:01:45.528Z,17.20
2018-08-16T23:04:13.802Z,17.20
2018-08-16T23:06:42.180Z,17.30
2018-08-16T23:09:10.685Z,17.10
2018-08-16T23:11:40.363Z,17.10
2018-08-16T23:14:11.349Z,17.00
2018-08-16T23:16:39.721Z,16.90
2018-08-16T23:19:08.572Z,17.00
2018-08-16T23:21:36.860Z,16.90
2018-08-16T23:24:04.814Z,16.90
2018-08-16T23:26:32.769Z,16.90
2018-08-16T23:29:01.032Z,17.00
2018-08-16T23:31:28.977Z,16.90
2018-08-16T23:33:56.929Z,16.80
2018-08-16T23:36:25.597Z,16.80
2018-08-16T23:38:53.564Z,16.70
2018-08-16T23:41:21.956Z,14.50
2018-08-16T23:43:51.322Z,16.50
2018-08-16T23:46:20.034Z,16.50
2018-08-16T23:48:48.733Z,16.50
2018-08-16T23:51:16.661Z,16.50
2018-08-16T23:53:45.345Z,16.50
2018-08-16T23:56:14.549Z,16.60
2018-08-16T23:58:42.531Z,16.50
